KGSH/GSH METAR and TAF weather

Enter ICAO airport designator
Station Type Date Time Source
KGSH METAR 2020/01/17 22:53 UTC NOAA

KGSH 172253Z AUTO 12009KT 10SM OVC095 M03/M08 A3055 RMK AO2 SLP358 T10281083


Station Type Date Time Source
KGSH Decoded METAR 2020/01/17 22:53 UTC NOAA

GOSHEN MUNICIPAL AIRPORT, IN, United States (KGSH) 41-32N 85-47W 252M
Jan 17, 2020 - 05:53 PM EST / 2020.01.17 2253 UTC
Wind: from the ESE (120 degrees) at 10 MPH (9 KT):0
Visibility: 10 mile(s):0
Sky conditions: overcast
Temperature: 27.0 F (-2.8 C)
Windchill: 17 F (-8 C):1
Dew Point: 17.1 F (-8.3 C)
Relative Humidity: 65%
Pressure (altimeter): 30.55 in. Hg (1034 hPa)
ob: KGSH 172253Z AUTO 12009KT 10SM OVC095 M03/M08 A3055 RMK AO2 SLP358 T10281083
cycle: 23

Station Type Date Time Source
KGSH TAF UTC NOAA

Error!

Example: see airport list